createdAt,value
2022-07-29T00:00:14.585Z,12.11
2022-07-29T00:00:33.056Z,12.11
2022-07-29T00:01:05.062Z,12.11
2022-07-29T00:01:35.006Z,12.11
2022-07-29T00:02:06.000Z,12.11
2022-07-29T00:02:37.079Z,12.11
2022-07-29T00:03:08.070Z,12.11
2022-07-29T00:03:39.081Z,12.11
2022-07-29T00:04:10.110Z,12.38
2022-07-29T00:04:41.113Z,12.38
2022-07-29T00:05:12.005Z,12.61
2022-07-29T00:05:43.030Z,12.61
2022-07-29T00:06:14.994Z,12.61
2022-07-29T00:06:45.007Z,12.61
2022-07-29T00:07:16.002Z,12.61
2022-07-29T00:07:47.056Z,12.61
2022-07-29T00:08:18.233Z,12.77
2022-07-29T00:08:48.995Z,12.77
2022-07-29T00:09:20.010Z,12.77
2022-07-29T00:09:52.498Z,12.77
2022-07-29T00:10:21.997Z,12.77
2022-07-29T00:10:53.063Z,12.77
2022-07-29T00:11:25.040Z,13.00
2022-07-29T00:11:55.005Z,13.00
2022-07-29T00:12:26.918Z,13.00
2022-07-29T00:12:57.059Z,13.00
2022-07-29T00:13:32.269Z,13.00
2022-07-29T00:13:58.997Z,13.22
2022-07-29T00:14:30.030Z,13.22
2022-07-29T00:15:13.485Z,13.11
2022-07-29T00:15:32.051Z,13.11
2022-07-29T00:16:04.454Z,13.11
2022-07-29T00:16:35.133Z,13.11
2022-07-29T00:17:05.002Z,13.27
2022-07-29T00:17:35.994Z,13.61
2022-07-29T00:18:07.021Z,13.61
2022-07-29T00:18:38.005Z,13.50
2022-07-29T00:19:09.088Z,13.72
2022-07-29T00:19:41.950Z,13.72
2022-07-29T00:20:11.161Z,13.72
2022-07-29T00:20:42.001Z,13.72
2022-07-29T00:21:13.096Z,13.72
2022-07-29T00:21:45.006Z,13.72
2022-07-29T00:22:15.035Z,13.88
2022-07-29T00:22:46.004Z,13.88
2022-07-29T00:23:17.084Z,13.88
2022-07-29T00:23:48.045Z,13.77
2022-07-29T00:24:19.283Z,13.77
2022-07-29T00:24:50.114Z,13.77
2022-07-29T00:25:21.003Z,13.77
2022-07-29T00:25:52.017Z,13.77
2022-07-29T00:26:23.020Z,13.77
2022-07-29T00:26:55.054Z,13.77
2022-07-29T00:27:25.018Z,13.77
2022-07-29T00:27:56.051Z,14.11
2022-07-29T00:28:27.069Z,14.11
2022-07-29T00:29:30.741Z,14.11
2022-07-29T00:30:00.032Z,14.11
2022-07-29T00:30:43.604Z,14.11
2022-07-29T00:31:02.201Z,14.22
2022-07-29T00:31:33.079Z,14.22
2022-07-29T00:32:05.162Z,14.22
2022-07-29T00:32:35.097Z,14.22
2022-07-29T00:33:09.014Z,14.22
2022-07-29T00:33:37.018Z,14.22
2022-07-29T00:34:08.073Z,14.22
2022-07-29T00:34:39.061Z,14.38
2022-07-29T00:35:10.082Z,14.38
2022-07-29T00:35:41.008Z,14.38
2022-07-29T00:36:12.004Z,14.38
2022-07-29T00:36:43.017Z,14.38
2022-07-29T00:37:15.042Z,14.27
2022-07-29T00:37:45.050Z,14.27
2022-07-29T00:38:15.978Z,14.27
2022-07-29T00:38:47.053Z,14.27
2022-07-29T00:39:18.009Z,14.27
2022-07-29T00:39:48.984Z,14.27
2022-07-29T00:40:20.058Z,14.27
2022-07-29T00:40:51.030Z,14.27
2022-07-29T00:41:21.991Z,14.27
2022-07-29T00:41:53.028Z,14.27
2022-07-29T00:42:24.977Z,14.27
2022-07-29T00:42:54.990Z,14.27
2022-07-29T00:43:26.022Z,14.27
2022-07-29T00:43:57.039Z,14.27
2022-07-29T00:44:28.026Z,14.50
2022-07-29T00:44:58.991Z,14.50
2022-07-29T00:45:42.400Z,14.50
2022-07-29T00:46:01.122Z,14.50
2022-07-29T00:46:32.084Z,14.50
2022-07-29T00:47:03.080Z,14.50
2022-07-29T00:47:34.990Z,14.50
2022-07-29T00:48:05.075Z,14.38
2022-07-29T00:48:36.058Z,14.38
2022-07-29T00:49:07.161Z,14.38
2022-07-29T00:49:38.018Z,14.38
2022-07-29T00:50:09.125Z,14.38
2022-07-29T00:50:40.017Z,14.38
2022-07-29T00:51:11.009Z,14.38
2022-07-29T00:51:41.978Z,14.38
2022-07-29T00:52:13.065Z,14.38
2022-07-29T00:52:45.048Z,14.38
2022-07-29T00:53:15.003Z,14.38
2022-07-29T00:53:45.994Z,14.38
2022-07-29T00:54:17.513Z,14.38
2022-07-29T00:54:48.052Z,14.38
2022-07-29T00:55:19.043Z,14.38
2022-07-29T00:55:50.063Z,14.38
2022-07-29T00:56:21.018Z,14.27
2022-07-29T00:56:51.960Z,14.27
2022-07-29T00:57:23.088Z,14.27
2022-07-29T00:57:54.989Z,14.27
2022-07-29T00:58:25.009Z,14.27
2022-07-29T00:58:55.981Z,14.27
2022-07-29T00:59:26.991Z,14.27
2022-07-29T00:59:58.048Z,14.27
2022-07-29T01:00:43.641Z,14.27
2022-07-29T01:01:00.221Z,14.27
2022-07-29T01:01:31.360Z,14.27
2022-07-29T01:02:02.219Z,14.27
2022-07-29T01:02:33.256Z,14.27
2022-07-29T01:03:05.158Z,14.27
2022-07-29T01:03:35.018Z,14.27
2022-07-29T01:04:11.620Z,14.27
2022-07-29T01:04:39.456Z,14.27
2022-07-29T01:05:08.035Z,14.27
2022-07-29T01:05:51.028Z,14.27
2022-07-29T01:06:15.780Z,14.27
2022-07-29T01:06:50.708Z,14.27
2022-07-29T01:07:12.057Z,14.22
2022-07-29T01:07:43.167Z,14.22
2022-07-29T01:08:15.128Z,14.22
2022-07-29T01:08:45.083Z,14.22
2022-07-29T01:09:16.122Z,14.22
2022-07-29T01:09:47.320Z,14.22
2022-07-29T01:10:18.136Z,14.22
2022-07-29T01:10:49.083Z,14.22
2022-07-29T01:11:20.191Z,14.27
2022-07-29T01:11:50.993Z,14.22
2022-07-29T01:12:22.010Z,14.22
2022-07-29T01:12:52.996Z,14.22
2022-07-29T01:13:25.017Z,14.22
2022-07-29T01:13:55.029Z,14.22
2022-07-29T01:14:26.095Z,14.22
2022-07-29T01:14:57.010Z,14.22
2022-07-29T01:15:40.393Z,14.22
2022-07-29T01:15:59.087Z,14.22
2022-07-29T01:16:30.083Z,14.22
2022-07-29T01:17:01.042Z,14.22
2022-07-29T01:17:32.055Z,14.22
2022-07-29T01:18:03.027Z,14.22
2022-07-29T01:18:35.021Z,14.22
2022-07-29T01:19:05.064Z,14.22
2022-07-29T01:19:36.017Z,14.22
2022-07-29T01:20:07.214Z,14.22
2022-07-29T01:20:38.014Z,14.22
2022-07-29T01:21:09.048Z,14.22
2022-07-29T01:21:39.988Z,14.22
2022-07-29T01:22:11.043Z,14.22
2022-07-29T01:22:41.989Z,14.22
2022-07-29T01:23:12.983Z,14.22
2022-07-29T01:23:44.991Z,14.22
2022-07-29T01:24:15.336Z,14.22
2022-07-29T01:24:46.038Z,14.22
2022-07-29T01:25:16.997Z,14.22
2022-07-29T01:25:53.163Z,14.22
2022-07-29T01:26:20.538Z,14.22
2022-07-29T01:26:50.052Z,14.22
2022-07-29T01:27:20.994Z,14.22
2022-07-29T01:27:51.975Z,14.22
2022-07-29T01:28:23.025Z,14.22
2022-07-29T01:28:54.990Z,14.11
2022-07-29T01:29:24.974Z,14.11
2022-07-29T01:29:55.991Z,14.11
2022-07-29T01:30:39.465Z,14.11
2022-07-29T01:30:58.160Z,14.11
2022-07-29T01:31:29.047Z,14.11
2022-07-29T01:32:01.080Z,14.11
2022-07-29T01:32:31.051Z,14.11
2022-07-29T01:33:02.135Z,14.00
2022-07-29T01:33:32.978Z,14.00
2022-07-29T01:34:05.061Z,14.00
2022-07-29T01:34:34.987Z,14.00
2022-07-29T01:35:06.001Z,14.00
2022-07-29T01:35:37.066Z,13.88
2022-07-29T01:36:08.014Z,13.88
2022-07-29T01:36:39.027Z,13.88
2022-07-29T01:37:10.021Z,13.88
2022-07-29T01:37:41.029Z,13.88
2022-07-29T01:38:12.152Z,13.88
2022-07-29T01:38:43.044Z,13.77
2022-07-29T01:39:14.965Z,13.77
2022-07-29T01:39:44.961Z,13.77
2022-07-29T01:40:15.957Z,13.77
2022-07-29T01:40:46.988Z,13.77
2022-07-29T01:41:17.989Z,13.72
2022-07-29T01:41:48.974Z,13.72
2022-07-29T01:42:20.084Z,13.72
2022-07-29T01:42:50.941Z,13.72
2022-07-29T01:43:21.975Z,13.72
2022-07-29T01:43:53.033Z,13.72
2022-07-29T01:44:24.977Z,13.72
2022-07-29T01:44:55.007Z,13.72
2022-07-29T01:45:38.344Z,13.72
2022-07-29T01:45:57.009Z,13.72
2022-07-29T01:46:28.034Z,13.72
2022-07-29T01:46:59.086Z,13.77
2022-07-29T01:47:30.009Z,13.77
2022-07-29T01:48:01.109Z,13.77
2022-07-29T01:48:31.973Z,13.77
2022-07-29T01:49:03.061Z,13.77
2022-07-29T01:49:34.993Z,13.61
2022-07-29T01:50:05.187Z,13.61
2022-07-29T01:50:35.980Z,13.77
2022-07-29T01:51:07.041Z,13.77
2022-07-29T01:51:37.968Z,13.77
2022-07-29T01:52:08.985Z,13.72
2022-07-29T01:52:39.983Z,13.72
2022-07-29T01:53:11.010Z,13.72
2022-07-29T01:53:41.991Z,13.72
2022-07-29T01:54:13.177Z,13.72
2022-07-29T01:54:46.766Z,13.72
2022-07-29T01:55:14.957Z,13.72
2022-07-29T01:55:45.981Z,13.72
2022-07-29T01:56:16.978Z,13.72
2022-07-29T01:56:47.971Z,13.72
2022-07-29T01:57:19.012Z,13.72
2022-07-29T01:57:50.015Z,13.72
2022-07-29T01:58:20.955Z,13.72
2022-07-29T01:58:51.951Z,13.77
2022-07-29T01:59:23.022Z,14.00
2022-07-29T01:59:54.989Z,14.00
2022-07-29T02:00:37.651Z,14.00
2022-07-29T02:00:56.112Z,14.00
2022-07-29T02:01:27.055Z,14.00
2022-07-29T02:01:58.017Z,14.00
2022-07-29T02:02:29.107Z,14.00
2022-07-29T02:02:59.969Z,14.00
2022-07-29T02:03:30.953Z,14.00
2022-07-29T02:04:02.114Z,14.00
2022-07-29T02:04:33.006Z,14.00
2022-07-29T02:05:05.131Z,14.00
2022-07-29T02:05:34.970Z,14.00
2022-07-29T02:06:05.997Z,14.00
2022-07-29T02:06:36.966Z,14.00
2022-07-29T02:07:08.029Z,14.00
2022-07-29T02:07:38.979Z,14.00
2022-07-29T02:08:09.999Z,14.00
2022-07-29T02:08:41.036Z,14.00
2022-07-29T02:09:11.988Z,14.00
2022-07-29T02:09:42.963Z,14.00
2022-07-29T02:10:14.954Z,14.00
2022-07-29T02:10:44.964Z,13.88
2022-07-29T02:11:15.986Z,13.88
2022-07-29T02:11:46.958Z,13.88
2022-07-29T02:12:17.957Z,13.88
2022-07-29T02:12:50.570Z,14.00
2022-07-29T02:13:19.971Z,14.00
2022-07-29T02:13:51.001Z,14.00
2022-07-29T02:14:21.989Z,14.00
2022-07-29T02:14:52.956Z,14.00
2022-07-29T02:15:37.294Z,14.00
2022-07-29T02:15:55.181Z,14.00
2022-07-29T02:16:26.008Z,14.00
2022-07-29T02:16:56.990Z,14.22
2022-07-29T02:17:27.968Z,14.11
2022-07-29T02:17:59.000Z,14.11
2022-07-29T02:18:30.031Z,14.11
2022-07-29T02:19:01.075Z,14.11
2022-07-29T02:19:31.968Z,14.11
2022-07-29T02:20:03.057Z,14.11
2022-07-29T02:20:35.006Z,14.11
2022-07-29T02:21:04.981Z,14.11
2022-07-29T02:21:35.962Z,14.11
2022-07-29T02:22:07.027Z,14.00
2022-07-29T02:22:37.960Z,14.00
2022-07-29T02:23:08.957Z,14.00
2022-07-29T02:23:50.981Z,14.00
2022-07-29T02:24:10.959Z,14.00
2022-07-29T02:24:41.970Z,14.22
2022-07-29T02:25:13.758Z,14.22
2022-07-29T02:25:44.952Z,14.22
2022-07-29T02:26:14.934Z,14.11
2022-07-29T02:26:46.016Z,14.11
2022-07-29T02:27:16.935Z,14.11
2022-07-29T02:27:47.959Z,14.11
2022-07-29T02:28:18.993Z,14.11
2022-07-29T02:28:50.022Z,14.11
2022-07-29T02:29:21.001Z,14.11
2022-07-29T02:29:51.950Z,14.11
2022-07-29T02:30:35.338Z,14.11
2022-07-29T02:30:55.064Z,14.11
2022-07-29T02:31:25.131Z,14.11
2022-07-29T02:31:55.960Z,14.11
2022-07-29T02:32:26.971Z,14.11
2022-07-29T02:32:57.958Z,14.11
2022-07-29T02:33:29.009Z,14.11
2022-07-29T02:33:59.978Z,14.11
2022-07-29T02:34:30.987Z,14.11
2022-07-29T02:35:02.076Z,14.11
2022-07-29T02:35:34.869Z,14.11
2022-07-29T02:36:04.986Z,14.11
2022-07-29T02:36:34.969Z,14.11
2022-07-29T02:37:06.035Z,14.11
2022-07-29T02:37:36.952Z,14.11
2022-07-29T02:38:08.035Z,14.11
2022-07-29T02:38:38.951Z,14.11
2022-07-29T02:39:10.803Z,14.11
2022-07-29T02:39:40.992Z,14.11
2022-07-29T02:40:11.963Z,14.00
2022-07-29T02:40:42.964Z,14.00
2022-07-29T02:41:14.930Z,14.00
2022-07-29T02:41:44.959Z,14.00
2022-07-29T02:42:16.007Z,14.00
2022-07-29T02:42:46.952Z,14.00
2022-07-29T02:43:17.948Z,14.00
2022-07-29T02:43:49.006Z,14.00
2022-07-29T02:44:20.455Z,14.00
2022-07-29T02:44:50.951Z,14.00
2022-07-29T02:45:34.293Z,14.00
2022-07-29T02:45:52.956Z,14.00
2022-07-29T02:46:28.931Z,14.00
2022-07-29T02:46:55.009Z,14.00
2022-07-29T02:47:25.958Z,14.00
2022-07-29T02:47:56.966Z,14.00
2022-07-29T02:48:28.029Z,14.00
2022-07-29T02:48:59.054Z,14.00
2022-07-29T02:49:29.961Z,14.00
2022-07-29T02:50:01.051Z,14.00
2022-07-29T02:50:31.938Z,14.00
2022-07-29T02:51:03.234Z,14.00
2022-07-29T02:51:43.949Z,14.00
2022-07-29T02:52:04.964Z,14.00
2022-07-29T02:52:35.950Z,14.00
2022-07-29T02:53:06.965Z,14.00
2022-07-29T02:53:37.942Z,14.00
2022-07-29T02:54:09.057Z,14.00
2022-07-29T02:54:39.950Z,14.00
2022-07-29T02:55:11.040Z,14.00
2022-07-29T02:55:41.957Z,14.00
2022-07-29T02:56:13.039Z,14.00
2022-07-29T02:56:44.938Z,14.00
2022-07-29T02:57:14.954Z,14.00
2022-07-29T02:57:54.603Z,14.27
2022-07-29T02:58:16.946Z,14.27
2022-07-29T02:58:47.950Z,14.27
2022-07-29T02:59:19.014Z,14.11
2022-07-29T02:59:49.956Z,14.11
2022-07-29T03:00:33.296Z,14.11
2022-07-29T03:00:51.962Z,14.11
2022-07-29T03:01:23.037Z,14.11
2022-07-29T03:01:54.963Z,14.27
2022-07-29T03:02:24.942Z,14.22
2022-07-29T03:02:56.006Z,14.22
2022-07-29T03:03:26.940Z,14.22
2022-07-29T03:03:57.922Z,14.22
2022-07-29T03:04:29.116Z,14.22
2022-07-29T03:05:00.048Z,14.22
2022-07-29T03:05:30.963Z,14.22
2022-07-29T03:06:02.067Z,14.22
2022-07-29T03:06:38.622Z,14.22
2022-07-29T03:07:04.994Z,14.22
2022-07-29T03:07:34.955Z,14.22
2022-07-29T03:08:05.947Z,14.22
2022-07-29T03:08:36.950Z,14.22
2022-07-29T03:09:12.976Z,14.22
2022-07-29T03:09:38.950Z,14.22
2022-07-29T03:10:13.417Z,14.22
2022-07-29T03:10:40.944Z,14.22
2022-07-29T03:11:11.991Z,14.38
2022-07-29T03:11:49.925Z,14.38
2022-07-29T03:12:14.993Z,14.38
2022-07-29T03:12:45.006Z,14.38
2022-07-29T03:13:16.127Z,14.38
2022-07-29T03:13:46.947Z,14.38
2022-07-29T03:14:18.440Z,14.38
2022-07-29T03:14:49.053Z,14.38
2022-07-29T03:15:32.292Z,14.38
2022-07-29T03:15:51.041Z,14.61
2022-07-29T03:16:22.171Z,14.61
2022-07-29T03:16:53.013Z,14.61
2022-07-29T03:17:24.961Z,14.61
2022-07-29T03:17:54.932Z,14.61
2022-07-29T03:18:25.985Z,14.61
2022-07-29T03:18:56.997Z,14.61
2022-07-29T03:19:27.939Z,14.77
2022-07-29T03:19:58.947Z,14.72
2022-07-29T03:20:29.955Z,14.72
2022-07-29T03:21:01.038Z,14.72
2022-07-29T03:21:31.967Z,14.72
2022-07-29T03:22:03.028Z,14.88
2022-07-29T03:22:34.926Z,14.88
2022-07-29T03:23:04.989Z,14.88
2022-07-29T03:23:36.917Z,14.88
2022-07-29T03:24:10.563Z,14.88
2022-07-29T03:24:37.959Z,14.88
2022-07-29T03:25:09.019Z,14.88
2022-07-29T03:25:39.976Z,14.88
2022-07-29T03:26:10.958Z,14.88
2022-07-29T03:26:41.926Z,14.88
2022-07-29T03:27:12.969Z,15.11
2022-07-29T03:27:44.965Z,15.11
2022-07-29T03:28:14.945Z,15.11
2022-07-29T03:28:45.932Z,15.11
2022-07-29T03:29:17.010Z,15.11
2022-07-29T03:29:49.707Z,15.00
2022-07-29T03:30:31.402Z,15.00
2022-07-29T03:30:49.996Z,15.00
2022-07-29T03:31:20.996Z,15.00
2022-07-29T03:31:52.004Z,15.00
2022-07-29T03:32:24.006Z,15.00
2022-07-29T03:32:54.934Z,15.00
2022-07-29T03:33:24.939Z,15.00
2022-07-29T03:33:55.934Z,15.00
2022-07-29T03:34:26.916Z,15.00
2022-07-29T03:34:57.977Z,15.00
2022-07-29T03:35:28.988Z,15.00
2022-07-29T03:35:59.989Z,15.00
2022-07-29T03:36:31.096Z,15.00
2022-07-29T03:37:02.043Z,15.00
2022-07-29T03:37:32.965Z,15.00
2022-07-29T03:38:04.939Z,15.00
2022-07-29T03:38:34.979Z,15.22
2022-07-29T03:39:11.456Z,15.22
2022-07-29T03:39:36.969Z,15.22
2022-07-29T03:40:08.025Z,15.22
2022-07-29T03:40:38.981Z,15.22
2022-07-29T03:41:10.007Z,15.38
2022-07-29T03:41:40.925Z,15.38
2022-07-29T03:42:11.979Z,15.38
2022-07-29T03:42:42.974Z,15.27
2022-07-29T03:43:14.988Z,15.27
2022-07-29T03:43:49.521Z,15.27
2022-07-29T03:44:16.335Z,15.50
2022-07-29T03:44:47.018Z,15.50
2022-07-29T03:45:30.348Z,15.50
2022-07-29T03:45:49.005Z,15.50
2022-07-29T03:46:20.023Z,15.61
2022-07-29T03:46:50.971Z,15.50
2022-07-29T03:47:21.981Z,15.50
2022-07-29T03:47:57.090Z,15.50
2022-07-29T03:48:24.933Z,15.72
2022-07-29T03:48:54.973Z,15.72
2022-07-29T03:49:26.020Z,15.72
2022-07-29T03:49:56.923Z,15.72
2022-07-29T03:50:27.950Z,15.72
2022-07-29T03:50:58.978Z,15.72
2022-07-29T03:51:33.206Z,15.72
2022-07-29T03:52:01.023Z,15.72
2022-07-29T03:52:31.952Z,15.61
2022-07-29T03:53:08.074Z,15.61
2022-07-29T03:53:35.021Z,15.61
2022-07-29T03:54:09.830Z,15.61
2022-07-29T03:54:36.005Z,15.61
2022-07-29T03:55:07.046Z,15.61
2022-07-29T03:55:37.969Z,15.77
2022-07-29T03:56:09.021Z,15.77
2022-07-29T03:56:40.118Z,15.77
2022-07-29T03:57:10.999Z,15.72
2022-07-29T03:57:42.022Z,15.72
2022-07-29T03:58:13.103Z,15.72
2022-07-29T03:58:45.038Z,15.72
2022-07-29T03:59:15.017Z,15.72
2022-07-29T03:59:46.058Z,15.77
2022-07-29T04:00:29.356Z,15.77
2022-07-29T04:00:47.928Z,15.77
2022-07-29T04:01:19.075Z,15.77
2022-07-29T04:01:50.180Z,15.77
2022-07-29T04:02:23.609Z,15.77
2022-07-29T04:02:52.031Z,15.72
2022-07-29T04:03:23.088Z,15.72
2022-07-29T04:03:55.114Z,15.72
2022-07-29T04:04:25.031Z,15.72
2022-07-29T04:04:56.008Z,15.72
2022-07-29T04:05:27.019Z,15.72
2022-07-29T04:05:58.002Z,15.72
2022-07-29T04:06:29.134Z,15.61
2022-07-29T04:07:00.025Z,15.61
2022-07-29T04:07:30.999Z,15.61
2022-07-29T04:08:02.197Z,15.61
2022-07-29T04:08:33.027Z,15.61
2022-07-29T04:09:04.996Z,15.61
2022-07-29T04:09:35.004Z,15.61
2022-07-29T04:10:06.061Z,15.77
2022-07-29T04:10:37.027Z,15.61
2022-07-29T04:11:08.055Z,15.61
2022-07-29T04:11:57.130Z,15.77
2022-07-29T04:12:10.085Z,15.77
2022-07-29T04:12:41.000Z,15.77
2022-07-29T04:13:11.981Z,15.77
2022-07-29T04:13:43.057Z,15.77
2022-07-29T04:14:15.484Z,15.77
2022-07-29T04:14:45.018Z,15.77
2022-07-29T04:15:31.387Z,15.77
2022-07-29T04:15:47.086Z,15.77
2022-07-29T04:16:18.098Z,15.77
2022-07-29T04:16:49.103Z,15.77
2022-07-29T04:17:20.040Z,15.77
2022-07-29T04:17:51.038Z,15.77
2022-07-29T04:18:22.031Z,15.77
2022-07-29T04:18:53.045Z,15.77
2022-07-29T04:19:25.185Z,15.77
2022-07-29T04:19:55.202Z,15.77
2022-07-29T04:20:26.057Z,15.77
2022-07-29T04:20:57.065Z,15.77
2022-07-29T04:21:28.057Z,15.77
2022-07-29T04:21:59.045Z,15.77
2022-07-29T04:22:30.053Z,15.77
2022-07-29T04:23:01.117Z,15.77
2022-07-29T04:23:32.002Z,15.72
2022-07-29T04:24:08.062Z,15.72
2022-07-29T04:24:34.997Z,15.72
2022-07-29T04:25:05.038Z,15.72
2022-07-29T04:25:36.027Z,15.72
2022-07-29T04:26:07.075Z,15.72
2022-07-29T04:26:38.037Z,15.72
2022-07-29T04:27:09.011Z,15.72
2022-07-29T04:27:39.996Z,15.72
2022-07-29T04:28:11.046Z,15.72
2022-07-29T04:28:41.988Z,15.72
2022-07-29T04:29:13.055Z,15.72
2022-07-29T04:29:56.835Z,15.72
2022-07-29T04:30:27.434Z,15.72
2022-07-29T04:30:46.135Z,15.72
2022-07-29T04:31:17.502Z,15.72
2022-07-29T04:31:48.086Z,15.72
2022-07-29T04:32:19.032Z,15.72
2022-07-29T04:32:50.022Z,15.72
2022-07-29T04:33:20.951Z,15.72
2022-07-29T04:33:51.965Z,15.72
2022-07-29T04:34:22.986Z,15.72
2022-07-29T04:34:54.994Z,15.72
2022-07-29T04:35:25.028Z,15.72
2022-07-29T04:35:56.005Z,15.72
2022-07-29T04:36:29.267Z,15.72
2022-07-29T04:36:58.208Z,15.72
2022-07-29T04:37:29.059Z,15.72
2022-07-29T04:37:59.995Z,15.72
2022-07-29T04:38:30.967Z,15.72
2022-07-29T04:39:02.135Z,15.72
2022-07-29T04:39:33.019Z,15.72
2022-07-29T04:40:05.131Z,15.72
2022-07-29T04:40:35.078Z,15.88
2022-07-29T04:41:06.038Z,15.72
2022-07-29T04:41:36.995Z,15.72
2022-07-29T04:42:08.473Z,15.72
2022-07-29T04:42:41.963Z,15.72
2022-07-29T04:43:10.017Z,15.72
2022-07-29T04:43:41.040Z,15.72
2022-07-29T04:44:12.000Z,15.72
2022-07-29T04:44:43.347Z,15.72
2022-07-29T04:45:27.339Z,15.72
2022-07-29T04:45:44.954Z,15.72
2022-07-29T04:46:16.038Z,15.72
2022-07-29T04:46:47.058Z,15.72
2022-07-29T04:47:17.991Z,15.72
2022-07-29T04:47:49.078Z,15.72
2022-07-29T04:48:22.944Z,15.72
2022-07-29T04:48:51.072Z,15.72
2022-07-29T04:49:22.101Z,15.72
2022-07-29T04:49:53.019Z,15.72
2022-07-29T04:50:25.008Z,15.72
2022-07-29T04:50:55.001Z,15.72
2022-07-29T04:51:25.925Z,15.72
2022-07-29T04:51:57.053Z,15.72
2022-07-29T04:52:28.005Z,15.72
2022-07-29T04:52:58.993Z,15.50
2022-07-29T04:53:30.024Z,15.50
2022-07-29T04:54:01.100Z,15.50
2022-07-29T04:54:32.045Z,15.50
2022-07-29T04:55:03.021Z,15.50
2022-07-29T04:55:35.009Z,15.61
2022-07-29T04:56:05.049Z,15.61
2022-07-29T04:56:35.988Z,15.61
2022-07-29T04:57:07.108Z,15.61
2022-07-29T04:57:37.989Z,15.61
2022-07-29T04:58:09.051Z,15.61
2022-07-29T04:58:40.023Z,15.61
2022-07-29T04:59:10.991Z,15.61
2022-07-29T04:59:41.981Z,15.61
2022-07-29T05:00:28.145Z,15.61
2022-07-29T05:00:44.981Z,15.72
2022-07-29T05:01:15.074Z,15.72
2022-07-29T05:01:46.052Z,15.72
2022-07-29T05:02:17.016Z,15.72
2022-07-29T05:02:48.089Z,15.61
2022-07-29T05:03:18.982Z,15.61
2022-07-29T05:03:50.051Z,15.61
2022-07-29T05:04:21.253Z,15.61
2022-07-29T05:04:52.057Z,15.61
2022-07-29T05:05:22.990Z,15.72
2022-07-29T05:05:55.028Z,15.72
2022-07-29T05:06:25.033Z,15.72
2022-07-29T05:06:55.941Z,15.50
2022-07-29T05:07:27.087Z,15.50
2022-07-29T05:07:58.037Z,15.50
2022-07-29T05:08:29.152Z,15.50
2022-07-29T05:08:59.997Z,15.50
2022-07-29T05:09:31.019Z,15.61
2022-07-29T05:10:02.107Z,15.61
2022-07-29T05:10:33.030Z,15.61
2022-07-29T05:11:12.095Z,15.72
2022-07-29T05:11:34.982Z,15.72
2022-07-29T05:12:06.045Z,15.72
2022-07-29T05:12:36.992Z,15.77
2022-07-29T05:13:08.015Z,15.77
2022-07-29T05:13:45.160Z,15.77
2022-07-29T05:14:10.032Z,15.77
2022-07-29T05:14:41.008Z,15.77
2022-07-29T05:15:24.431Z,15.88
2022-07-29T05:15:43.057Z,15.88
2022-07-29T05:16:15.117Z,15.88
2022-07-29T05:16:45.027Z,16.11
2022-07-29T05:17:16.020Z,16.11
2022-07-29T05:17:47.050Z,16.11
2022-07-29T05:18:17.995Z,16.00
2022-07-29T05:18:49.050Z,16.00
2022-07-29T05:19:20.004Z,16.00
2022-07-29T05:19:51.000Z,16.00
2022-07-29T05:20:21.977Z,16.00
2022-07-29T05:20:52.979Z,16.00
2022-07-29T05:21:25.033Z,16.00
2022-07-29T05:21:55.003Z,16.00
2022-07-29T05:22:25.994Z,16.00
2022-07-29T05:22:56.996Z,16.00
2022-07-29T05:23:27.981Z,16.00
2022-07-29T05:23:58.990Z,16.00
2022-07-29T05:24:30.025Z,16.00
2022-07-29T05:25:04.396Z,16.11
2022-07-29T05:25:40.850Z,15.88
2022-07-29T05:26:02.998Z,15.88
2022-07-29T05:26:35.008Z,15.88
2022-07-29T05:27:05.031Z,16.00
2022-07-29T05:27:35.979Z,16.00
2022-07-29T05:28:07.007Z,16.00
2022-07-29T05:28:37.983Z,16.11
2022-07-29T05:29:44.892Z,16.11
2022-07-29T05:30:23.565Z,16.11
2022-07-29T05:30:42.141Z,16.22
2022-07-29T05:31:13.303Z,16.22
2022-07-29T05:31:45.022Z,16.22
2022-07-29T05:32:15.091Z,16.00
2022-07-29T05:32:46.093Z,16.11
2022-07-29T05:33:35.270Z,16.11
2022-07-29T05:33:47.982Z,16.22
2022-07-29T05:34:19.114Z,16.00
2022-07-29T05:34:51.794Z,16.00
2022-07-29T05:35:20.975Z,16.00
2022-07-29T05:35:52.011Z,16.00
2022-07-29T05:36:22.984Z,16.00
2022-07-29T05:36:55.001Z,15.88
2022-07-29T05:37:25.085Z,15.77
2022-07-29T05:37:55.912Z,15.77
2022-07-29T05:38:27.035Z,15.61
2022-07-29T05:38:57.959Z,15.61
2022-07-29T05:39:48.570Z,15.61
2022-07-29T05:40:00.003Z,15.61
2022-07-29T05:40:30.968Z,15.72
2022-07-29T05:41:02.069Z,15.50
2022-07-29T05:41:33.021Z,15.50
2022-07-29T05:42:05.004Z,15.50
2022-07-29T05:42:35.003Z,15.50
2022-07-29T05:43:05.999Z,15.72
2022-07-29T05:43:36.985Z,15.77
2022-07-29T05:44:08.069Z,15.77
2022-07-29T05:44:39.025Z,15.77
2022-07-29T05:45:22.341Z,15.77
2022-07-29T05:45:49.970Z,15.72
2022-07-29T05:46:12.112Z,15.88
2022-07-29T05:46:43.037Z,15.50
2022-07-29T05:47:15.118Z,15.38
2022-07-29T05:47:44.985Z,15.61
2022-07-29T05:48:15.983Z,15.61
2022-07-29T05:48:47.044Z,15.88
2022-07-29T05:49:23.090Z,16.00
2022-07-29T05:49:48.980Z,16.00
2022-07-29T05:50:20.058Z,16.00
2022-07-29T05:50:51.021Z,15.88
2022-07-29T05:51:21.986Z,15.88
2022-07-29T05:51:53.081Z,15.88
2022-07-29T05:52:25.218Z,15.88
2022-07-29T05:52:55.072Z,15.88
2022-07-29T05:53:26.051Z,15.77
2022-07-29T05:53:57.025Z,15.77
2022-07-29T05:54:28.094Z,15.88
2022-07-29T05:54:59.033Z,15.88
2022-07-29T05:55:30.021Z,15.88
2022-07-29T05:56:01.119Z,15.88
2022-07-29T05:56:32.030Z,15.88
2022-07-29T05:57:03.055Z,16.00
2022-07-29T05:57:35.019Z,15.88
2022-07-29T05:58:05.130Z,15.72
2022-07-29T05:58:36.110Z,15.72
2022-07-29T05:59:07.137Z,15.77
2022-07-29T05:59:38.017Z,15.61
2022-07-29T06:00:21.719Z,15.72
2022-07-29T06:00:40.108Z,16.00
2022-07-29T06:01:11.107Z,16.00
2022-07-29T06:01:42.079Z,15.77
2022-07-29T06:02:13.036Z,15.77
2022-07-29T06:02:45.017Z,15.88
2022-07-29T06:03:15.064Z,16.00
2022-07-29T06:03:46.063Z,15.72
2022-07-29T06:04:17.526Z,15.72
2022-07-29T06:04:48.176Z,15.88
2022-07-29T06:05:19.125Z,15.72
2022-07-29T06:05:50.025Z,15.72
2022-07-29T06:06:21.015Z,15.88
2022-07-29T06:06:52.027Z,15.88
2022-07-29T06:07:23.062Z,15.77
2022-07-29T06:07:55.003Z,16.11
2022-07-29T06:08:25.066Z,16.11
2022-07-29T06:08:56.003Z,16.11
2022-07-29T06:09:27.061Z,16.11
2022-07-29T06:09:58.021Z,16.11
2022-07-29T06:10:29.286Z,16.00
2022-07-29T06:11:00.072Z,15.72
2022-07-29T06:11:31.056Z,15.72
2022-07-29T06:12:02.098Z,15.72
2022-07-29T06:12:33.052Z,15.72
2022-07-29T06:13:05.059Z,15.72
2022-07-29T06:13:35.140Z,15.61
2022-07-29T06:14:06.143Z,15.72
2022-07-29T06:14:37.085Z,15.77
2022-07-29T06:15:20.461Z,15.88
2022-07-29T06:15:39.172Z,15.72
2022-07-29T06:16:10.155Z,15.72
2022-07-29T06:16:41.083Z,15.72
2022-07-29T06:17:12.029Z,15.72
2022-07-29T06:17:59.923Z,15.72
2022-07-29T06:18:15.074Z,15.61
2022-07-29T06:18:45.058Z,15.61
2022-07-29T06:19:16.001Z,15.77
2022-07-29T06:19:47.068Z,15.61
2022-07-29T06:20:18.077Z,15.77
2022-07-29T06:20:49.026Z,15.88
2022-07-29T06:21:20.036Z,15.88
2022-07-29T06:21:51.083Z,15.88
2022-07-29T06:22:22.070Z,15.77
2022-07-29T06:22:53.066Z,15.77
2022-07-29T06:23:25.110Z,15.61
2022-07-29T06:23:55.077Z,15.88
2022-07-29T06:24:26.056Z,16.11
2022-07-29T06:24:57.072Z,16.00
2022-07-29T06:25:28.079Z,15.72
2022-07-29T06:25:59.115Z,15.61
2022-07-29T06:26:30.433Z,15.61
2022-07-29T06:27:01.130Z,15.77
2022-07-29T06:27:32.023Z,15.72
2022-07-29T06:28:03.101Z,15.77
2022-07-29T06:28:35.110Z,15.61
2022-07-29T06:29:05.078Z,15.77
2022-07-29T06:29:36.051Z,15.61
2022-07-29T06:30:19.501Z,15.61
2022-07-29T06:30:38.139Z,15.27
2022-07-29T06:31:09.111Z,15.50
2022-07-29T06:31:40.063Z,15.50
2022-07-29T06:32:11.065Z,15.50
2022-07-29T06:32:43.348Z,15.61
2022-07-29T06:33:12.981Z,15.61
2022-07-29T06:33:45.068Z,15.61
2022-07-29T06:34:15.268Z,15.61
2022-07-29T06:34:46.283Z,15.61
2022-07-29T06:35:39.150Z,15.61
2022-07-29T06:35:53.423Z,15.72
2022-07-29T06:36:19.072Z,15.61
2022-07-29T06:36:50.022Z,15.50
2022-07-29T06:37:21.062Z,15.50
2022-07-29T06:37:52.112Z,15.72
2022-07-29T06:38:30.984Z,15.77
2022-07-29T06:38:55.008Z,15.61
2022-07-29T06:39:25.020Z,15.72
2022-07-29T06:39:59.505Z,15.88